createdAt,value
2022-11-28T16:25:25.740Z,83.60
2022-11-28T16:28:35.038Z,84.20
2022-11-28T16:31:37.394Z,83.90
2022-11-28T16:34:48.515Z,83.70
2022-11-28T16:37:50.768Z,83.80
2022-11-28T16:41:00.781Z,83.90
2022-11-28T16:44:06.228Z,84.10
2022-11-28T16:47:25.678Z,84.20
2022-11-28T16:50:28.417Z,85.10
2022-11-28T16:53:50.979Z,84.60
2022-11-28T16:56:57.749Z,84.70
2022-11-28T17:00:00.027Z,84.90
2022-11-28T17:03:11.612Z,85.00
2022-11-28T17:06:22.412Z,85.20
2022-11-28T17:09:24.626Z,85.30
2022-11-28T17:12:29.658Z,85.30
2022-11-28T17:15:31.768Z,85.40
2022-11-28T17:18:33.939Z,85.50
2022-11-28T17:21:57.847Z,85.70
2022-11-28T17:25:01.660Z,85.80
2022-11-28T17:28:05.370Z,86.00
2022-11-28T17:31:10.515Z,86.10
2022-11-28T17:34:23.237Z,86.20
2022-11-28T17:37:25.358Z,86.10
2022-11-28T17:40:33.441Z,86.10
2022-11-28T17:43:39.022Z,86.10
2022-11-28T17:46:42.089Z,86.00
2022-11-28T17:49:46.402Z,86.00
2022-11-28T17:52:49.071Z,86.00
2022-11-28T17:55:59.044Z,86.00
2022-11-28T17:59:02.486Z,85.80
2022-11-28T18:02:04.992Z,85.80
2022-11-28T18:05:08.599Z,85.80
2022-11-28T18:08:10.791Z,85.70
2022-11-28T18:11:14.539Z,85.70
2022-11-28T18:14:19.678Z,85.70
2022-11-28T18:17:22.718Z,85.80
2022-11-28T18:20:28.730Z,85.60
2022-11-28T18:23:31.419Z,85.60
2022-11-28T18:26:33.787Z,85.60
2022-11-28T18:29:35.983Z,85.50
2022-11-28T18:32:38.503Z,85.50
2022-11-28T18:35:40.958Z,85.60
2022-11-28T18:38:45.284Z,85.50
2022-11-28T18:41:47.680Z,85.50
2022-11-28T18:44:50.381Z,85.50
2022-11-28T18:47:55.953Z,85.60
2022-11-28T18:51:02.322Z,85.40
2022-11-28T18:54:05.674Z,85.40
2022-11-28T18:57:09.419Z,85.40
2022-11-28T19:00:12.250Z,85.30
2022-11-28T19:03:15.059Z,85.30
2022-11-28T19:06:17.569Z,85.40
2022-11-28T22:16:29.582Z,84.60
2022-11-28T22:19:33.930Z,84.60
2022-11-28T22:22:36.120Z,85.40
2022-11-28T22:25:38.683Z,84.70
2022-11-28T22:28:41.736Z,84.70
2022-11-28T22:31:44.625Z,84.70
2022-11-28T22:34:46.950Z,84.60
2022-11-28T22:37:49.207Z,84.60
2022-11-28T22:40:51.360Z,84.60
2022-11-28T22:44:00.372Z,84.60
2022-11-28T22:47:02.894Z,84.70
2022-11-28T22:50:05.953Z,84.60
2022-11-28T22:53:08.593Z,84.70
2022-11-28T22:56:14.335Z,84.60
2022-11-28T22:59:17.397Z,84.60
2022-11-28T23:02:19.829Z,84.60
2022-11-28T23:05:22.639Z,84.70
2022-11-28T23:08:24.810Z,84.70
2022-11-28T23:11:31.046Z,84.60
2022-11-28T23:14:34.130Z,84.70
2022-11-28T23:17:36.657Z,84.60
2022-11-28T23:20:38.945Z,84.60
2022-11-28T23:23:41.449Z,84.60
2022-11-28T23:26:44.082Z,84.70
2022-11-28T23:29:47.745Z,84.60
2022-11-28T23:32:49.994Z,84.70
2022-11-28T23:35:53.035Z,84.60
2022-11-28T23:38:57.243Z,84.60
2022-11-28T23:42:00.062Z,84.60
2022-11-28T23:45:02.298Z,84.60
2022-11-28T23:48:04.746Z,84.60
2022-11-28T23:51:07.508Z,84.50
2022-11-28T23:54:10.984Z,84.60
2022-11-28T23:57:13.155Z,84.50
